createdAt,value
2022-08-25T00:02:01.987Z,61.54
2022-08-25T00:03:01.473Z,61.95
2022-08-25T00:05:05.530Z,61.44
2022-08-25T00:06:05.484Z,61.63
2022-08-25T00:08:09.995Z,62.31
2022-08-25T00:09:09.522Z,61.83
2022-08-25T00:11:14.018Z,62.40
2022-08-25T00:12:13.562Z,62.12
2022-08-25T00:14:17.584Z,62.40
2022-08-25T00:15:17.638Z,62.50
2022-08-25T00:17:22.116Z,63.43
2022-08-25T00:18:21.654Z,63.24
2022-08-25T00:20:14.616Z,63.43
2022-08-25T00:21:14.635Z,63.63
2022-08-25T00:23:19.132Z,64.21
2022-08-25T00:24:19.814Z,64.59
2022-08-25T00:25:18.715Z,64.31
2022-08-25T00:26:18.742Z,64.69
2022-08-25T00:27:18.823Z,65.17
2022-08-25T00:28:18.803Z,64.98
2022-08-25T00:29:18.834Z,65.27
2022-08-25T00:30:18.869Z,65.66
2022-08-25T00:31:18.989Z,65.14
2022-08-25T00:32:18.923Z,65.24
2022-08-25T00:33:18.961Z,65.75
2022-08-25T00:34:18.983Z,66.24
2022-08-25T00:35:19.015Z,65.82
2022-08-25T00:36:19.042Z,66.69
2022-08-25T00:37:19.072Z,66.88
2022-08-25T00:38:19.101Z,66.69
2022-08-25T00:39:19.132Z,66.97
2022-08-25T00:40:19.227Z,67.65
2022-08-25T00:41:19.192Z,67.55
2022-08-25T00:42:19.220Z,67.85
2022-08-25T00:43:19.250Z,68.33
2022-08-25T00:44:19.286Z,68.04
2022-08-25T00:45:19.307Z,67.94
2022-08-25T00:46:19.397Z,68.33
2022-08-25T00:47:19.370Z,68.68
2022-08-25T00:48:19.397Z,68.68
2022-08-25T00:49:24.668Z,68.68
2022-08-25T00:50:19.461Z,68.87
2022-08-25T00:51:19.487Z,69.35
2022-08-25T00:52:19.516Z,69.45
2022-08-25T00:53:19.555Z,69.74
2022-08-25T00:54:19.576Z,69.93
2022-08-25T00:55:19.602Z,69.45
2022-08-25T00:56:19.631Z,69.07
2022-08-25T00:57:19.665Z,69.07
2022-08-25T00:58:19.699Z,68.87
2022-08-25T00:59:19.724Z,68.49
2022-08-25T01:00:19.753Z,68.77
2022-08-25T01:01:19.877Z,68.77
2022-08-25T01:02:19.869Z,69.07
2022-08-25T01:03:19.849Z,68.59
2022-08-25T01:04:19.879Z,68.68
2022-08-25T01:05:19.900Z,69.07
2022-08-25T01:06:19.933Z,68.87
2022-08-25T01:07:19.959Z,68.68
2022-08-25T01:08:19.992Z,69.16
2022-08-25T01:09:20.046Z,69.26
2022-08-25T01:10:20.050Z,69.55
2022-08-25T01:11:20.078Z,69.84
2022-08-25T01:12:20.108Z,69.55
2022-08-25T01:13:20.137Z,69.93
2022-08-25T01:14:20.166Z,69.93
2022-08-25T01:15:20.193Z,69.26
2022-08-25T01:16:20.293Z,68.97
2022-08-25T01:17:20.260Z,68.87
2022-08-25T01:18:20.282Z,69.16
2022-08-25T01:19:20.311Z,68.59
2022-08-25T01:20:20.353Z,68.68
2022-08-25T01:21:20.367Z,69.13
2022-08-25T01:22:20.401Z,69.45
2022-08-25T01:23:20.431Z,69.26
2022-08-25T01:24:20.458Z,69.51
2022-08-25T01:25:20.487Z,69.61
2022-08-25T01:26:25.134Z,69.71
2022-08-25T01:27:20.548Z,70.28
2022-08-25T01:28:20.576Z,70.57
2022-08-25T01:29:20.605Z,70.48
2022-08-25T01:30:20.648Z,70.76
2022-08-25T01:31:23.890Z,71.44
2022-08-25T01:32:20.691Z,71.31
2022-08-25T01:33:20.724Z,71.60
2022-08-25T01:34:20.746Z,71.31
2022-08-25T01:35:20.777Z,71.70
2022-08-25T01:36:20.804Z,72.47
2022-08-25T01:37:20.838Z,72.27
2022-08-25T01:38:20.865Z,72.66
2022-08-25T01:39:20.897Z,72.66
2022-08-25T01:40:20.948Z,73.05
2022-08-25T01:41:20.952Z,72.95
2022-08-25T01:42:20.985Z,72.85
2022-08-25T01:43:21.011Z,73.05
2022-08-25T01:44:21.044Z,73.14
2022-08-25T01:45:21.072Z,73.58
2022-08-25T01:46:21.160Z,73.43
2022-08-25T01:47:21.127Z,73.20
2022-08-25T01:48:21.156Z,73.10
2022-08-25T01:49:21.190Z,73.49
2022-08-25T01:50:21.216Z,73.68
2022-08-25T01:51:21.243Z,73.88
2022-08-25T01:52:21.351Z,73.91
2022-08-25T01:53:21.303Z,73.58
2022-08-25T01:54:21.336Z,73.68
2022-08-25T01:55:21.359Z,73.68
2022-08-25T01:56:21.388Z,74.36
2022-08-25T01:57:21.417Z,74.36
2022-08-25T01:58:21.449Z,74.74
2022-08-25T01:59:23.838Z,74.55
2022-08-25T02:00:21.503Z,74.45
2022-08-25T02:01:21.601Z,74.36
2022-08-25T02:02:21.588Z,74.74
2022-08-25T02:03:21.588Z,73.88
2022-08-25T02:04:21.734Z,73.58
2022-08-25T02:05:23.723Z,74.07
2022-08-25T02:06:21.678Z,73.78
2022-08-25T02:07:21.708Z,74.36
2022-08-25T02:08:21.733Z,74.45
2022-08-25T02:09:21.766Z,74.26
2022-08-25T02:10:21.792Z,74.55
2022-08-25T02:11:21.824Z,74.65
2022-08-25T02:12:21.847Z,74.99
2022-08-25T02:13:26.730Z,74.51
2022-08-25T02:14:21.907Z,74.90
2022-08-25T02:15:21.934Z,75.28
2022-08-25T02:16:21.999Z,75.38
2022-08-25T02:17:21.994Z,75.67
2022-08-25T02:18:22.022Z,75.67
2022-08-25T02:19:22.053Z,75.96
2022-08-25T02:20:22.100Z,76.34
2022-08-25T02:21:22.110Z,76.44
2022-08-25T02:22:22.144Z,76.25
2022-08-25T02:23:22.170Z,76.82
2022-08-25T02:24:22.194Z,76.53
2022-08-25T02:25:22.226Z,76.25
2022-08-25T02:26:22.252Z,76.15
2022-08-25T02:27:22.281Z,76.06
2022-08-25T02:28:22.313Z,76.53
2022-08-25T02:29:22.341Z,76.25
2022-08-25T02:30:22.388Z,75.96
2022-08-25T02:31:22.396Z,75.67
2022-08-25T02:32:22.422Z,75.96
2022-08-25T02:33:22.454Z,75.48
2022-08-25T02:34:22.480Z,75.38
2022-08-25T02:35:22.511Z,75.38
2022-08-25T02:36:22.537Z,75.57
2022-08-25T02:37:22.569Z,75.38
2022-08-25T02:38:22.594Z,75.28
2022-08-25T02:39:22.623Z,75.28
2022-08-25T02:40:22.695Z,75.32
2022-08-25T02:41:22.680Z,75.19
2022-08-25T02:42:22.708Z,75.09
2022-08-25T02:43:22.736Z,75.09
2022-08-25T02:44:22.763Z,74.71
2022-08-25T02:45:22.795Z,74.80
2022-08-25T02:46:22.876Z,75.19
2022-08-25T02:47:24.594Z,74.99
2022-08-25T02:48:22.879Z,75.48
2022-08-25T02:49:22.904Z,75.38
2022-08-25T02:50:22.934Z,75.57
2022-08-25T02:51:22.961Z,75.38
2022-08-25T02:52:22.993Z,75.57
2022-08-25T02:53:23.021Z,75.38
2022-08-25T02:54:23.051Z,75.19
2022-08-25T02:55:23.075Z,75.28
2022-08-25T02:56:23.101Z,75.19
2022-08-25T02:57:23.133Z,75.48
2022-08-25T02:58:23.162Z,75.48
2022-08-25T02:59:23.188Z,75.76
2022-08-25T03:00:23.286Z,75.28
2022-08-25T03:01:28.677Z,75.76
2022-08-25T03:02:23.272Z,75.48
2022-08-25T03:03:23.300Z,75.67
2022-08-25T03:04:23.362Z,76.25
2022-08-25T03:05:23.361Z,76.44
2022-08-25T03:06:23.386Z,76.15
2022-08-25T03:07:23.414Z,76.63
2022-08-25T03:08:23.441Z,76.82
2022-08-25T03:09:23.470Z,76.63
2022-08-25T03:10:23.499Z,77.17
2022-08-25T03:11:30.704Z,76.31
2022-08-25T03:14:32.007Z,76.50
2022-08-25T03:15:31.573Z,76.88
2022-08-25T03:17:35.667Z,76.98
2022-08-25T03:18:35.601Z,76.88
2022-08-25T03:20:28.584Z,77.21
2022-08-25T03:21:28.563Z,77.01
2022-08-25T03:23:32.614Z,77.36
2022-08-25T03:24:32.605Z,77.26
2022-08-25T03:26:37.101Z,77.56
2022-08-25T03:27:36.650Z,77.56
2022-08-25T03:29:29.795Z,77.36
2022-08-25T03:30:29.817Z,77.26
2022-08-25T03:32:35.806Z,77.65
2022-08-25T03:33:33.861Z,77.65
2022-08-25T03:35:37.894Z,77.56
2022-08-25T03:36:37.911Z,77.26
2022-08-25T03:38:42.403Z,77.17
2022-08-25T03:39:41.953Z,76.98
2022-08-25T03:41:45.976Z,77.65
2022-08-25T03:42:45.995Z,77.46
2022-08-25T03:44:50.492Z,77.65
2022-08-25T03:45:50.071Z,77.75
2022-08-25T03:47:54.069Z,78.03
2022-08-25T03:48:54.087Z,77.84
2022-08-25T03:50:50.670Z,78.42
2022-08-25T03:51:47.047Z,78.23
2022-08-25T03:53:51.073Z,78.81
2022-08-25T03:54:51.091Z,78.81
2022-08-25T03:56:55.585Z,79.10
2022-08-25T03:57:55.141Z,78.90
2022-08-25T03:59:59.165Z,78.81
2022-08-25T04:00:59.230Z,78.42
2022-08-25T04:03:03.677Z,79.28
2022-08-25T04:04:03.228Z,79.28
2022-08-25T04:06:07.253Z,79.48
2022-08-25T04:07:07.769Z,79.00
2022-08-25T04:09:12.162Z,79.00
2022-08-25T04:10:11.506Z,79.10
2022-08-25T04:12:15.536Z,79.25
2022-08-25T04:13:15.550Z,79.15
2022-08-25T04:15:20.050Z,79.58
2022-08-25T04:16:19.641Z,79.35
2022-08-25T04:18:23.616Z,79.35
2022-08-25T04:19:23.635Z,79.35
2022-08-25T04:21:28.126Z,79.92
2022-08-25T04:22:27.690Z,79.73
2022-08-25T04:24:31.714Z,80.40
2022-08-25T04:25:31.740Z,80.40
2022-08-25T04:27:36.226Z,80.11
2022-08-25T04:28:35.787Z,80.02
2022-08-25T04:30:29.605Z,80.50
2022-08-25T04:31:29.456Z,80.50
2022-08-25T04:32:29.457Z,80.50
2022-08-25T04:33:29.487Z,80.15
2022-08-25T04:34:31.452Z,80.06
2022-08-25T04:35:29.540Z,80.35
2022-08-25T04:36:29.567Z,80.54
2022-08-25T04:37:29.595Z,80.54
2022-08-25T04:38:29.621Z,80.54
2022-08-25T04:39:29.654Z,80.54
2022-08-25T04:40:29.719Z,80.63
2022-08-25T04:41:29.707Z,80.54
2022-08-25T04:42:29.734Z,80.63
2022-08-25T04:43:29.764Z,80.73
2022-08-25T04:44:29.794Z,80.40
2022-08-25T04:45:29.865Z,80.73
2022-08-25T04:46:29.848Z,80.69
2022-08-25T04:47:29.871Z,80.54
2022-08-25T04:48:29.945Z,80.54
2022-08-25T04:49:29.933Z,81.02
2022-08-25T04:50:29.959Z,80.54
2022-08-25T04:51:29.983Z,80.73
2022-08-25T04:52:30.012Z,80.35
2022-08-25T04:53:30.043Z,80.83
2022-08-25T04:54:36.035Z,80.83
2022-08-25T04:55:30.097Z,80.63
2022-08-25T04:56:30.128Z,80.54
2022-08-25T04:57:30.150Z,80.63
2022-08-25T04:58:30.180Z,80.63
2022-08-25T04:59:30.775Z,80.54
2022-08-25T05:00:30.254Z,80.54
2022-08-25T05:01:30.300Z,80.83
2022-08-25T05:02:30.291Z,80.63
2022-08-25T05:03:30.319Z,80.54
2022-08-25T05:04:30.411Z,80.63
2022-08-25T05:05:30.377Z,80.54
2022-08-25T05:06:30.431Z,80.54
2022-08-25T05:07:30.431Z,80.68
2022-08-25T05:08:30.520Z,80.54
2022-08-25T05:09:32.258Z,80.63
2022-08-25T05:10:30.518Z,80.58
2022-08-25T05:11:30.545Z,80.48
2022-08-25T05:12:30.573Z,80.58
2022-08-25T05:13:30.600Z,80.38
2022-08-25T05:14:30.633Z,80.38
2022-08-25T05:15:30.659Z,80.87
2022-08-25T05:16:30.769Z,80.87
2022-08-25T05:17:30.714Z,80.77
2022-08-25T05:18:30.750Z,80.77
2022-08-25T05:19:30.772Z,80.68
2022-08-25T05:20:30.798Z,80.96
2022-08-25T05:21:30.824Z,80.58
2022-08-25T05:22:30.854Z,80.68
2022-08-25T05:23:30.884Z,80.52
2022-08-25T05:24:30.914Z,80.58
2022-08-25T05:25:30.941Z,80.58
2022-08-25T05:26:30.971Z,80.52
2022-08-25T05:27:30.994Z,80.43
2022-08-25T05:28:31.025Z,80.71
2022-08-25T05:29:31.054Z,80.62
2022-08-25T05:30:31.089Z,80.52
2022-08-25T05:31:31.156Z,80.62
2022-08-25T05:32:31.143Z,80.43
2022-08-25T05:33:32.878Z,80.14
2022-08-25T05:34:31.204Z,80.52
2022-08-25T05:35:31.225Z,80.62
2022-08-25T05:36:31.252Z,80.56
2022-08-25T05:37:31.281Z,80.23
2022-08-25T05:38:31.310Z,80.66
2022-08-25T05:39:31.341Z,80.46
2022-08-25T05:40:31.406Z,80.08
2022-08-25T05:41:31.394Z,80.18
2022-08-25T05:42:31.426Z,79.89
2022-08-25T05:43:31.452Z,79.89
2022-08-25T05:44:31.483Z,79.60
2022-08-25T05:45:31.528Z,79.41
2022-08-25T05:46:31.780Z,80.02
2022-08-25T05:47:31.567Z,79.83
2022-08-25T05:48:31.598Z,80.12
2022-08-25T05:49:31.621Z,80.12
2022-08-25T05:50:31.655Z,79.74
2022-08-25T05:51:31.682Z,80.02
2022-08-25T05:52:31.708Z,79.97
2022-08-25T05:53:32.969Z,79.58
2022-08-25T05:54:31.776Z,78.71
2022-08-25T05:55:31.796Z,79.29
2022-08-25T05:56:31.827Z,78.52
2022-08-25T05:57:31.854Z,78.42
2022-08-25T05:58:31.885Z,78.61
2022-08-25T05:59:31.919Z,78.27
2022-08-25T06:00:31.943Z,78.33
2022-08-25T06:01:32.012Z,78.13
2022-08-25T06:02:32.003Z,78.46
2022-08-25T06:03:32.094Z,78.36
2022-08-25T06:04:32.055Z,78.27
2022-08-25T06:05:32.097Z,78.66
2022-08-25T06:06:32.117Z,78.27
2022-08-25T06:07:32.145Z,78.08
2022-08-25T06:08:32.178Z,78.75
2022-08-25T06:09:32.214Z,78.75
2022-08-25T06:10:32.233Z,78.27
2022-08-25T06:11:32.265Z,78.36
2022-08-25T06:12:32.295Z,78.56
2022-08-25T06:13:32.319Z,77.83
2022-08-25T06:14:32.350Z,78.41
2022-08-25T06:15:32.379Z,78.25
2022-08-25T06:16:32.495Z,77.03
2022-08-25T06:17:32.438Z,76.62
2022-08-25T06:18:32.469Z,73.95
2022-08-25T06:19:32.505Z,72.67
2022-08-25T06:20:32.530Z,70.37
2022-08-25T06:21:32.563Z,69.54
2022-08-25T06:22:32.592Z,68.35
2022-08-25T06:23:32.620Z,66.53
2022-08-25T06:24:32.647Z,65.85
2022-08-25T06:25:32.690Z,64.07
2022-08-25T06:26:32.712Z,62.93
2022-08-25T06:27:32.748Z,61.38
2022-08-25T06:28:32.775Z,61.02
2022-08-25T06:29:32.807Z,60.95
2022-08-25T06:30:32.841Z,60.27
2022-08-25T06:31:32.951Z,59.03
2022-08-25T06:32:32.900Z,59.33
2022-08-25T06:33:32.937Z,59.35
2022-08-25T06:34:32.977Z,58.09
2022-08-25T06:35:33.000Z,58.58
2022-08-25T06:36:33.061Z,57.63
2022-08-25T06:37:33.067Z,57.04
2022-08-25T06:38:33.099Z,57.04
2022-08-25T06:39:33.135Z,56.95
2022-08-25T06:40:33.234Z,56.92
2022-08-25T06:41:36.711Z,57.60
2022-08-25T06:42:33.235Z,58.58
2022-08-25T06:43:33.270Z,58.18
2022-08-25T06:44:33.303Z,58.28
2022-08-25T06:45:33.335Z,58.38
2022-08-25T06:46:36.750Z,57.82
2022-08-25T06:47:33.405Z,57.63
2022-08-25T06:48:33.435Z,58.02
2022-08-25T06:49:36.194Z,57.56
2022-08-25T06:50:33.507Z,56.58
2022-08-25T06:51:33.541Z,57.34
2022-08-25T06:52:33.574Z,57.24
2022-08-25T06:53:33.610Z,57.11
2022-08-25T06:54:33.645Z,57.60
2022-08-25T06:55:33.675Z,57.79
2022-08-25T06:56:33.711Z,58.84
2022-08-25T06:57:33.746Z,59.30
2022-08-25T06:58:33.784Z,59.88
2022-08-25T06:59:33.822Z,60.72
2022-08-25T07:00:33.868Z,60.63
2022-08-25T07:01:33.977Z,60.89
2022-08-25T07:02:35.347Z,61.05
2022-08-25T07:03:33.955Z,61.93
2022-08-25T07:04:33.988Z,62.48
2022-08-25T07:05:43.158Z,63.71
2022-08-25T07:06:34.058Z,64.59
2022-08-25T07:07:44.197Z,64.98
2022-08-25T07:08:34.126Z,65.66
2022-08-25T07:09:38.591Z,65.63
2022-08-25T07:10:34.197Z,66.30
2022-08-25T07:11:34.231Z,67.47
2022-08-25T07:12:34.256Z,67.18
2022-08-25T07:13:34.292Z,67.37
2022-08-25T07:14:34.326Z,67.63
2022-08-25T07:15:34.357Z,67.57
2022-08-25T07:16:34.464Z,67.44
2022-08-25T07:17:34.421Z,67.54
2022-08-25T07:18:34.459Z,68.02
2022-08-25T07:19:34.486Z,67.73
2022-08-25T07:20:34.520Z,67.73
2022-08-25T07:21:35.767Z,67.92
2022-08-25T07:22:34.587Z,68.51
2022-08-25T07:23:34.619Z,68.41
2022-08-25T07:24:34.650Z,68.89
2022-08-25T07:25:34.683Z,68.99
2022-08-25T07:26:37.713Z,68.12
2022-08-25T07:27:34.746Z,68.89
2022-08-25T07:28:34.782Z,69.18
2022-08-25T07:29:34.813Z,68.99
2022-08-25T07:30:34.841Z,69.57
2022-08-25T07:31:34.994Z,69.48
2022-08-25T07:32:34.906Z,69.09
2022-08-25T07:33:34.940Z,68.99
2022-08-25T07:34:34.971Z,68.99
2022-08-25T07:36:35.033Z,68.63
2022-08-25T07:37:50.009Z,68.44
2022-08-25T07:38:35.097Z,68.54
2022-08-25T07:39:35.131Z,68.15
2022-08-25T07:40:35.213Z,68.44
2022-08-25T07:41:35.197Z,68.44
2022-08-25T07:42:35.227Z,68.93
2022-08-25T07:43:35.260Z,68.63
2022-08-25T07:44:35.293Z,68.48
2022-08-25T07:45:35.325Z,68.67
2022-08-25T07:46:35.425Z,66.92
2022-08-25T07:47:35.392Z,66.72
2022-08-25T07:48:35.475Z,67.41
2022-08-25T07:49:39.653Z,67.41
2022-08-25T07:50:35.482Z,67.31
2022-08-25T07:51:35.518Z,67.21
2022-08-25T07:52:35.544Z,66.44
2022-08-25T07:53:35.581Z,66.82
2022-08-25T07:54:35.743Z,67.31
2022-08-25T07:55:35.645Z,66.72
2022-08-25T07:56:35.676Z,66.63
2022-08-25T07:57:35.710Z,66.53
2022-08-25T07:58:35.740Z,66.24
2022-08-25T07:59:39.692Z,66.53
2022-08-25T08:00:36.009Z,67.15
2022-08-25T08:01:35.886Z,66.17
2022-08-25T08:02:35.912Z,66.37
2022-08-25T08:03:50.648Z,66.56
2022-08-25T08:04:35.959Z,66.37
2022-08-25T08:05:35.966Z,66.02
2022-08-25T08:06:35.998Z,66.08
2022-08-25T08:07:43.087Z,65.40
2022-08-25T08:08:36.061Z,65.63
2022-08-25T08:09:36.094Z,65.63
2022-08-25T08:11:03.325Z,65.79
2022-08-25T08:11:36.163Z,65.92
2022-08-25T08:12:36.195Z,65.53
2022-08-25T08:13:41.146Z,66.02
2022-08-25T08:14:36.261Z,64.95
2022-08-25T08:15:36.289Z,65.53
2022-08-25T08:16:36.391Z,64.56
2022-08-25T08:17:36.377Z,65.14
2022-08-25T08:18:36.422Z,65.82
2022-08-25T08:19:36.423Z,65.04
2022-08-25T08:20:42.604Z,65.04
2022-08-25T08:21:36.488Z,65.14
2022-08-25T08:22:36.520Z,65.23
2022-08-25T08:23:36.552Z,64.56
2022-08-25T08:24:44.557Z,64.95
2022-08-25T08:25:36.618Z,65.53
2022-08-25T08:26:57.846Z,64.85
2022-08-25T08:27:36.683Z,65.43
2022-08-25T08:28:36.723Z,64.85
2022-08-25T08:29:36.747Z,65.23
2022-08-25T08:30:36.822Z,65.04
2022-08-25T08:31:37.035Z,65.14
2022-08-25T08:33:05.855Z,64.95
2022-08-25T08:33:40.810Z,65.14
2022-08-25T08:34:36.908Z,65.75
2022-08-25T08:35:36.945Z,65.08
2022-08-25T08:36:36.972Z,64.78
2022-08-25T08:37:37.010Z,64.29
2022-08-25T08:38:37.037Z,64.88
2022-08-25T08:39:37.101Z,65.08
2022-08-25T08:40:37.188Z,64.69
2022-08-25T08:42:07.222Z,64.98
2022-08-25T08:42:37.169Z,64.78
2022-08-25T08:43:37.206Z,64.69
2022-08-25T08:44:37.235Z,64.10
2022-08-25T08:45:40.377Z,64.10
2022-08-25T08:46:37.344Z,64.29
2022-08-25T08:47:37.336Z,64.39
2022-08-25T08:48:37.372Z,64.32
2022-08-25T08:49:37.403Z,64.13
2022-08-25T08:50:37.434Z,64.13
2022-08-25T08:51:37.468Z,63.94
2022-08-25T08:52:37.500Z,64.42
2022-08-25T08:53:37.537Z,64.23
2022-08-25T08:54:37.565Z,63.94
2022-08-25T08:55:37.599Z,63.65
2022-08-25T08:56:37.631Z,64.04
2022-08-25T08:57:37.690Z,62.96
2022-08-25T08:58:37.699Z,62.87
2022-08-25T08:59:37.732Z,62.57
2022-08-25T09:00:37.761Z,62.87
2022-08-25T09:01:37.812Z,62.38
2022-08-25T09:02:39.565Z,62.67
2022-08-25T09:03:39.710Z,63.55
2022-08-25T09:04:37.893Z,62.87
2022-08-25T09:05:42.763Z,62.87
2022-08-25T09:06:37.963Z,62.90
2022-08-25T09:07:37.995Z,62.67
2022-08-25T09:08:38.049Z,62.70
2022-08-25T09:09:38.062Z,62.90
2022-08-25T09:10:38.093Z,62.41
2022-08-25T09:11:38.124Z,62.41
2022-08-25T09:12:38.182Z,62.90
2022-08-25T09:13:38.305Z,62.96
2022-08-25T09:14:38.226Z,62.67
2022-08-25T09:15:41.121Z,62.70
2022-08-25T09:16:38.312Z,62.90
2022-08-25T09:17:38.326Z,62.12
2022-08-25T09:18:41.032Z,62.90
2022-08-25T09:19:41.925Z,62.60
2022-08-25T09:20:38.421Z,62.60
2022-08-25T09:21:38.460Z,61.83
2022-08-25T09:22:38.490Z,61.93
2022-08-25T09:23:38.528Z,62.51
2022-08-25T09:24:38.552Z,62.80
2022-08-25T09:25:54.404Z,61.93
2022-08-25T09:26:38.627Z,62.25
2022-08-25T09:27:38.659Z,62.05
2022-08-25T09:28:38.710Z,61.73
2022-08-25T09:29:38.723Z,61.63
2022-08-25T09:30:38.771Z,61.27
2022-08-25T09:31:38.906Z,61.66
2022-08-25T09:32:38.824Z,61.18
2022-08-25T09:33:38.853Z,60.98
2022-08-25T09:34:38.885Z,61.18
2022-08-25T09:35:38.931Z,60.30
2022-08-25T09:36:38.956Z,60.39
2022-08-25T09:37:38.990Z,60.78
2022-08-25T09:38:39.022Z,60.69
2022-08-25T09:39:39.056Z,60.88
2022-08-25T09:40:39.087Z,60.39
2022-08-25T09:41:39.119Z,60.78
2022-08-25T09:42:39.172Z,60.98
2022-08-25T09:43:39.188Z,61.37
2022-08-25T09:44:39.222Z,60.69
2022-08-25T09:45:39.256Z,60.88
2022-08-25T09:46:39.328Z,60.59
2022-08-25T09:47:39.322Z,60.20
2022-08-25T09:48:40.954Z,60.00
2022-08-25T09:49:39.388Z,59.72
2022-08-25T09:50:41.826Z,59.72
2022-08-25T09:51:42.955Z,59.55
2022-08-25T09:52:41.445Z,59.35
2022-08-25T09:53:39.520Z,60.10
2022-08-25T09:54:46.750Z,60.30
2022-08-25T09:55:39.587Z,60.00
2022-08-25T09:56:39.623Z,60.39
2022-08-25T09:57:39.656Z,60.00
2022-08-25T09:58:39.686Z,60.49
2022-08-25T09:59:39.720Z,60.49
2022-08-25T10:00:39.755Z,60.59
2022-08-25T10:01:39.823Z,60.39
2022-08-25T10:02:39.829Z,60.13
2022-08-25T10:03:39.858Z,60.42
2022-08-25T10:04:40.123Z,60.13
2022-08-25T10:05:39.922Z,60.03
2022-08-25T10:06:39.955Z,59.74
2022-08-25T10:07:39.990Z,60.52
2022-08-25T10:08:40.052Z,59.26
2022-08-25T10:09:40.059Z,58.97
2022-08-25T10:10:41.860Z,59.03
2022-08-25T10:11:40.125Z,58.94
2022-08-25T10:12:42.781Z,58.94
2022-08-25T10:13:40.189Z,59.55
2022-08-25T10:14:44.563Z,59.16
2022-08-25T10:15:40.294Z,59.45
2022-08-25T10:16:40.323Z,59.45
2022-08-25T10:17:40.322Z,59.74
2022-08-25T10:18:40.355Z,59.26
2022-08-25T10:19:40.393Z,59.35
2022-08-25T10:20:44.379Z,59.06
2022-08-25T10:21:40.458Z,58.97
2022-08-25T10:22:40.490Z,58.97
2022-08-25T10:23:40.525Z,59.45
2022-08-25T10:24:40.968Z,59.16
2022-08-25T10:25:40.593Z,59.26
2022-08-25T10:26:40.619Z,59.45
2022-08-25T10:27:40.656Z,60.03
2022-08-25T10:28:40.697Z,60.13
2022-08-25T10:29:40.799Z,59.16
2022-08-25T10:30:40.799Z,58.38
2022-08-25T10:31:41.324Z,57.99
2022-08-25T10:32:40.826Z,57.70
2022-08-25T10:33:40.858Z,57.73
2022-08-25T10:34:44.501Z,58.40
2022-08-25T10:35:40.924Z,58.31
2022-08-25T10:36:40.971Z,56.26
2022-08-25T10:37:40.993Z,56.65
2022-08-25T10:38:43.081Z,56.16
2022-08-25T10:39:41.088Z,56.07
2022-08-25T10:40:41.151Z,55.41
2022-08-25T10:41:41.130Z,55.12
2022-08-25T10:42:42.764Z,55.51
2022-08-25T10:43:41.196Z,55.41
2022-08-25T10:44:41.233Z,56.68
2022-08-25T10:45:41.263Z,55.32
2022-08-25T10:46:41.352Z,55.02
2022-08-25T10:47:48.508Z,55.05
2022-08-25T10:49:45.837Z,54.85
2022-08-25T10:50:45.755Z,55.05
2022-08-25T10:52:49.467Z,54.56
2022-08-25T10:53:49.459Z,53.97
2022-08-25T10:55:53.969Z,55.05
2022-08-25T10:56:53.526Z,55.47
2022-08-25T10:58:57.552Z,54.56
2022-08-25T10:59:57.577Z,54.85
2022-08-25T11:02:02.125Z,54.00
2022-08-25T11:03:01.680Z,54.10
2022-08-25T11:05:05.787Z,54.00
2022-08-25T11:06:05.733Z,54.00
2022-08-25T11:08:10.739Z,53.91
2022-08-25T11:09:10.318Z,54.10
2022-08-25T11:10:10.342Z,54.00
2022-08-25T11:11:10.350Z,53.42
2022-08-25T11:12:10.388Z,53.91
2022-08-25T11:13:11.352Z,53.71
2022-08-25T11:14:11.301Z,53.13
2022-08-25T11:15:10.486Z,54.20
2022-08-25T11:16:19.270Z,53.61
2022-08-25T11:17:10.618Z,53.52
2022-08-25T11:18:13.993Z,54.10
2022-08-25T11:19:10.622Z,54.20
2022-08-25T11:20:13.112Z,54.10
2022-08-25T11:21:10.706Z,53.22
2022-08-25T11:22:10.728Z,52.73
2022-08-25T11:23:11.344Z,52.83
2022-08-25T11:24:10.808Z,52.83
2022-08-25T11:25:10.831Z,52.95
2022-08-25T11:26:10.862Z,52.95
2022-08-25T11:27:13.762Z,52.37
2022-08-25T11:28:10.977Z,52.95
2022-08-25T11:29:12.126Z,52.86
2022-08-25T11:30:11.003Z,51.95
2022-08-25T11:31:11.083Z,52.93
2022-08-25T11:32:11.071Z,52.73
2022-08-25T11:33:11.107Z,53.05
2022-08-25T11:34:11.139Z,52.95
2022-08-25T11:35:12.146Z,51.49
2022-08-25T11:36:11.210Z,51.78
2022-08-25T11:37:11.518Z,51.10
2022-08-25T11:38:11.295Z,51.49
2022-08-25T11:39:11.341Z,51.39
2022-08-25T11:40:11.385Z,51.71
2022-08-25T11:41:11.699Z,51.39
2022-08-25T11:42:11.421Z,51.39
2022-08-25T11:43:11.452Z,51.49
2022-08-25T11:44:11.487Z,52.27
2022-08-25T11:45:11.532Z,52.37
2022-08-25T11:46:11.638Z,52.95
2022-08-25T11:47:19.115Z,52.54
2022-08-25T11:48:11.631Z,52.83
2022-08-25T11:49:11.665Z,52.93
2022-08-25T11:50:11.694Z,53.49
2022-08-25T11:51:11.727Z,53.39
2022-08-25T11:52:11.764Z,53.58
2022-08-25T11:53:11.803Z,53.19
2022-08-25T11:54:11.833Z,53.09
2022-08-25T11:55:11.870Z,53.39
2022-08-25T11:56:11.912Z,53.78
2022-08-25T11:57:11.938Z,53.68
2022-08-25T11:58:11.986Z,53.49
2022-08-25T11:59:12.005Z,53.68
2022-08-25T12:00:12.040Z,54.07
2022-08-25T12:01:12.074Z,53.68
2022-08-25T12:02:12.109Z,53.78
2022-08-25T12:03:12.143Z,53.71
2022-08-25T12:04:12.202Z,53.91
2022-08-25T12:05:12.359Z,53.32
2022-08-25T12:06:12.252Z,52.76
2022-08-25T12:07:12.281Z,52.86
2022-08-25T12:08:12.336Z,52.76
2022-08-25T12:09:12.351Z,52.98
2022-08-25T12:10:12.395Z,53.08
2022-08-25T12:11:12.426Z,52.88
2022-08-25T12:12:12.456Z,51.71
2022-08-25T12:13:12.495Z,50.05
2022-08-25T12:14:12.522Z,50.54
2022-08-25T12:15:12.556Z,50.54
2022-08-25T12:16:12.614Z,50.90
2022-08-25T12:17:12.631Z,50.61
2022-08-25T12:18:12.930Z,51.68
2022-08-25T12:19:12.704Z,51.49
2022-08-25T12:20:12.735Z,51.29
2022-08-25T12:21:12.769Z,51.10
2022-08-25T12:22:12.805Z,51.90
2022-08-25T12:23:12.845Z,51.81
2022-08-25T12:24:12.909Z,51.90
2022-08-25T12:25:12.910Z,51.81
2022-08-25T12:26:12.945Z,50.83
2022-08-25T12:27:12.979Z,51.32
2022-08-25T12:28:13.015Z,50.93
2022-08-25T12:29:13.049Z,51.34
2022-08-25T12:30:16.069Z,50.56
2022-08-25T12:31:13.169Z,50.27
2022-08-25T12:32:13.153Z,50.88
2022-08-25T12:33:13.192Z,50.59
2022-08-25T12:34:13.226Z,50.20
2022-08-25T12:35:13.262Z,49.51
2022-08-25T12:36:13.295Z,49.51
2022-08-25T12:37:13.334Z,49.60
2022-08-25T12:38:13.366Z,49.21
2022-08-25T12:39:13.403Z,49.48
2022-08-25T12:40:13.468Z,49.58
2022-08-25T12:41:13.487Z,50.10
2022-08-25T12:42:13.511Z,49.90
2022-08-25T12:43:13.553Z,49.31
2022-08-25T12:44:13.581Z,49.11
2022-08-25T12:45:13.617Z,49.60
2022-08-25T12:46:13.717Z,49.31
2022-08-25T12:47:13.688Z,49.90
2022-08-25T12:48:13.720Z,49.51
2022-08-25T12:49:13.759Z,49.90
2022-08-25T12:50:13.793Z,49.80
2022-08-25T12:51:13.829Z,49.33
2022-08-25T12:52:13.865Z,49.14
2022-08-25T12:53:13.902Z,49.36
2022-08-25T12:54:16.083Z,48.97
2022-08-25T12:55:13.968Z,48.87
2022-08-25T12:56:14.006Z,48.99
2022-08-25T12:57:14.039Z,48.21
2022-08-25T12:58:14.077Z,47.81
2022-08-25T12:59:14.123Z,47.72
2022-08-25T13:00:14.199Z,48.11
2022-08-25T13:01:17.554Z,47.16
2022-08-25T13:02:14.283Z,47.06
2022-08-25T13:03:14.428Z,47.45
2022-08-25T13:04:14.292Z,46.27
2022-08-25T13:05:14.327Z,46.56
2022-08-25T13:06:14.365Z,47.35
2022-08-25T13:07:14.398Z,47.62
2022-08-25T13:08:15.311Z,47.03
2022-08-25T13:09:14.475Z,46.54
2022-08-25T13:10:14.509Z,47.50
2022-08-25T13:11:14.547Z,47.20
2022-08-25T13:12:14.584Z,47.50
2022-08-25T13:13:14.618Z,47.30
2022-08-25T13:14:14.654Z,47.69
2022-08-25T13:15:14.688Z,47.47
2022-08-25T13:16:14.772Z,47.87
2022-08-25T13:17:14.795Z,47.77
2022-08-25T13:18:14.797Z,47.97
2022-08-25T13:19:14.835Z,47.57
2022-08-25T13:20:14.868Z,47.28
2022-08-25T13:21:14.902Z,47.87
2022-08-25T13:22:16.405Z,47.77
2022-08-25T13:23:14.972Z,48.55
2022-08-25T13:24:15.010Z,48.36
2022-08-25T13:25:15.047Z,48.75
2022-08-25T13:26:15.208Z,48.46
2022-08-25T13:27:15.118Z,48.65
2022-08-25T13:28:15.156Z,48.72
2022-08-25T13:29:17.695Z,48.43
2022-08-25T13:30:15.225Z,48.43
2022-08-25T13:31:15.257Z,49.29
2022-08-25T13:32:15.304Z,48.90
2022-08-25T13:33:15.327Z,48.99
2022-08-25T13:34:19.556Z,49.77
2022-08-25T13:35:15.398Z,49.68
2022-08-25T13:36:15.439Z,49.29
2022-08-25T13:37:15.497Z,49.48
2022-08-25T13:38:15.504Z,49.29